Time;durP1;ratioP1;P1;durP2;ratioP2;P2;SDS_P1;SDS_P2;PMS_P1;PMS_P2;Temp;Humidity;BMP_temperature;BMP_pressure;BME280_temperature;BME280_humidity;BME280_pressure;Samples;Min_cycle;Max_cycle;Signal;HPM_P1;HPM_P2
2024/04/20 00:00:22;;;;;;;13.48;1.52;;;6.40;99.90;;;;;;5460476;26;20217;-85
2024/04/20 00:02:50;;;;;;;12.53;1.37;;;6.50;99.90;;;;;;5460268;26;20651;-86
2024/04/20 00:05:16;;;;;;;15.32;1.40;;;6.40;99.90;;;;;;5428761;26;20952;-86
2024/04/20 00:07:42;;;;;;;13.50;1.33;;;6.50;99.90;;;;;;5460664;26;20256;-85
2024/04/20 00:10:08;;;;;;;13.75;1.67;;;6.40;99.90;;;;;;5460370;26;20255;-85
2024/04/20 00:12:33;;;;;;;13.87;1.17;;;6.40;99.90;;;;;;5428954;26;20220;-85
2024/04/20 00:14:59;;;;;;;12.60;1.30;;;6.40;99.90;;;;;;5461733;26;20205;-85
2024/04/20 00:17:25;;;;;;;13.13;1.40;;;6.40;99.90;;;;;;5429394;26;20218;-85
2024/04/20 00:19:52;;;;;;;13.43;1.60;;;6.40;99.90;;;;;;5460810;26;20628;-86
2024/04/20 00:22:18;;;;;;;13.80;1.40;;;6.40;99.90;;;;;;5461248;26;20269;-85
2024/04/20 00:24:49;;;;;;;12.50;1.50;;;6.40;99.90;;;;;;5461403;26;20733;-86
2024/04/20 00:27:15;;;;;;;13.98;1.45;;;6.40;99.90;;;;;;5461485;26;20966;-85
2024/04/20 00:29:41;;;;;;;15.23;1.80;;;6.50;99.90;;;;;;5460469;26;20251;-85
2024/04/20 00:32:07;;;;;;;14.30;1.80;;;6.40;99.90;;;;;;5428712;26;20446;-85
2024/04/20 00:34:32;;;;;;;16.63;2.13;;;6.40;99.90;;;;;;5460590;26;20217;-85
2024/04/20 00:36:58;;;;;;;13.20;1.90;;;6.40;99.90;;;;;;5460607;26;20205;-85
2024/04/20 00:39:24;;;;;;;15.10;1.83;;;6.40;99.90;;;;;;5429575;26;20670;-85
2024/04/20 00:41:53;;;;;;;13.97;1.50;;;6.40;99.90;;;;;;5459943;26;20247;-85
2024/04/20 00:44:19;;;;;;;15.00;2.22;;;6.40;99.90;;;;;;5429124;26;20267;-85
2024/04/20 00:46:47;;;;;;;19.42;1.88;;;6.50;99.90;;;;;;5461290;26;20282;-86
2024/04/20 00:49:14;;;;;;;16.02;1.67;;;6.50;99.90;;;;;;5428823;26;20259;-85
2024/04/20 00:51:42;;;;;;;15.15;1.85;;;6.40;99.90;;;;;;5428597;26;20586;-85
2024/04/20 00:54:09;;;;;;;13.00;1.48;;;6.50;99.90;;;;;;5460725;26;20205;-86
2024/04/20 00:56:36;;;;;;;13.85;1.33;;;6.40;99.90;;;;;;5459945;26;20206;-85
2024/04/20 00:59:02;;;;;;;14.25;1.67;;;6.40;99.90;;;;;;5460848;26;20209;-85
2024/04/20 01:01:28;;;;;;;16.00;1.60;;;6.40;99.90;;;;;;5428391;26;20579;-86
2024/04/20 01:03:55;;;;;;;12.63;1.70;;;6.40;99.90;;;;;;5428766;26;20268;-84
2024/04/20 01:06:20;;;;;;;14.57;1.60;;;6.40;99.90;;;;;;5460494;26;20773;-86
2024/04/20 01:08:49;;;;;;;13.93;1.87;;;6.30;99.90;;;;;;5428313;26;20247;-86
2024/04/20 01:11:16;;;;;;;13.20;1.40;;;6.20;99.90;;;;;;5460299;26;20217;-85
2024/04/20 01:14:02;;;;;;;22.88;2.03;;;6.20;99.90;;;;;;5428732;26;20225;-85
2024/04/20 01:16:28;;;;;;;14.82;1.85;;;6.20;99.90;;;;;;5428365;26;20247;-86
2024/04/20 01:18:54;;;;;;;14.07;1.70;;;6.20;99.90;;;;;;5459317;26;20209;-85
2024/04/20 01:21:21;;;;;;;16.23;2.63;;;6.20;99.90;;;;;;5460093;26;20451;-85
2024/04/20 01:23:51;;;;;;;16.67;1.55;;;6.10;99.90;;;;;;5460452;26;20702;-86
2024/04/20 01:26:17;;;;;;;18.13;1.88;;;6.10;99.90;;;;;;5428592;26;20221;-85
2024/04/20 01:28:43;;;;;;;13.10;1.43;;;6.10;99.90;;;;;;5428153;26;20539;-85
2024/04/20 01:31:09;;;;;;;13.50;1.70;;;6.10;99.90;;;;;;5428289;26;20501;-85
2024/04/20 01:33:34;;;;;;;18.73;2.07;;;6.00;99.90;;;;;;5428966;26;20313;-85
2024/04/20 01:36:00;;;;;;;14.33;1.90;;;6.00;99.90;;;;;;5428525;26;20221;-86
2024/04/20 01:38:26;;;;;;;17.03;1.90;;;6.00;99.90;;;;;;5461143;26;20209;-85
2024/04/20 01:40:52;;;;;;;16.73;1.50;;;5.90;99.90;;;;;;5460060;26;20217;-85
2024/04/20 01:43:17;;;;;;;13.80;1.75;;;5.80;99.90;;;;;;5428087;26;20217;-84
2024/04/20 01:45:43;;;;;;;13.70;1.40;;;5.90;99.90;;;;;;5459953;26;20205;-85
2024/04/20 01:48:09;;;;;;;19.87;1.70;;;5.90;99.90;;;;;;5459793;26;20427;-85
2024/04/20 01:50:35;;;;;;;14.43;2.67;;;5.90;99.90;;;;;;5459854;26;20248;-85
2024/04/20 01:53:00;;;;;;;14.57;1.77;;;5.90;99.90;;;;;;5459593;26;20206;-85
2024/04/20 01:55:26;;;;;;;12.77;1.53;;;5.90;99.90;;;;;;5459521;26;20205;-85
2024/04/20 01:57:52;;;;;;;13.10;1.60;;;5.90;99.90;;;;;;5459794;26;20209;-85
2024/04/20 02:00:17;;;;;;;14.30;1.60;;;5.90;99.90;;;;;;5464919;26;20658;-84
2024/04/20 02:02:44;;;;;;;14.23;1.40;;;5.90;99.90;;;;;;5461717;26;20660;-85
2024/04/20 02:05:10;;;;;;;13.65;1.38;;;5.90;99.90;;;;;;5461205;26;20213;-85
2024/04/20 02:07:35;;;;;;;14.30;1.43;;;5.90;99.90;;;;;;5429210;26;20325;-85
2024/04/20 02:10:01;;;;;;;14.73;1.60;;;5.80;99.90;;;;;;5429558;26;20225;-85
2024/04/20 02:12:27;;;;;;;16.77;1.67;;;5.90;99.90;;;;;;5460820;26;20431;-87
2024/04/20 02:14:52;;;;;;;17.30;1.87;;;5.90;99.90;;;;;;5465062;26;20241;-84
2024/04/20 02:17:18;;;;;;;19.33;1.97;;;5.90;99.90;;;;;;5471021;26;20209;-84
2024/04/20 02:19:44;;;;;;;13.80;1.33;;;5.90;99.90;;;;;;5432474;26;20217;-83
2024/04/20 02:22:09;;;;;;;13.47;1.40;;;6.00;99.90;;;;;;5437197;26;20213;-84
2024/04/20 02:24:35;;;;;;;13.90;1.60;;;6.00;99.90;;;;;;5432132;26;20589;-84
2024/04/20 02:27:01;;;;;;;14.87;1.63;;;6.10;99.90;;;;;;5459560;26;20760;-85
2024/04/20 02:29:27;;;;;;;15.90;1.53;;;6.00;99.90;;;;;;5459356;26;20440;-85
2024/04/20 02:31:52;;;;;;;12.67;1.30;;;6.00;99.90;;;;;;5458920;26;20247;-86
2024/04/20 02:34:18;;;;;;;13.87;1.53;;;6.00;99.90;;;;;;5459282;26;20294;-86
2024/04/20 02:36:43;;;;;;;13.10;1.50;;;6.10;99.90;;;;;;5458539;26;20271;-86
2024/04/20 02:39:09;;;;;;;14.90;1.70;;;6.10;99.90;;;;;;5426575;26;20213;-85
2024/04/20 02:41:35;;;;;;;15.03;1.40;;;6.10;99.90;;;;;;5427536;26;20225;-85
2024/04/20 02:44:00;;;;;;;12.70;1.90;;;6.10;99.90;;;;;;5458984;26;20287;-85
2024/04/20 02:46:27;;;;;;;13.13;1.37;;;6.10;99.90;;;;;;5426437;26;20217;-85
2024/04/20 02:48:53;;;;;;;15.27;1.40;;;6.10;99.90;;;;;;5458105;26;20316;-85
2024/04/20 02:51:18;;;;;;;14.27;1.30;;;6.00;99.90;;;;;;5457752;26;20232;-85
2024/04/20 02:53:44;;;;;;;19.33;2.30;;;5.90;99.90;;;;;;5459034;26;20443;-86
2024/04/20 02:56:10;;;;;;;13.30;1.50;;;6.00;99.90;;;;;;5426141;26;20552;-86
2024/04/20 02:58:35;;;;;;;15.10;1.50;;;6.00;99.90;;;;;;5458081;26;20256;-86
2024/04/20 03:01:02;;;;;;;13.80;1.73;;;6.00;99.90;;;;;;5425976;26;20226;-87
2024/04/20 03:03:29;;;;;;;25.52;2.28;;;6.00;99.90;;;;;;5457547;26;20265;-85
2024/04/20 03:05:55;;;;;;;14.98;2.17;;;6.00;99.90;;;;;;5461402;26;20221;-85
2024/04/20 03:08:21;;;;;;;14.27;1.80;;;6.10;99.90;;;;;;5461493;26;20366;-86
2024/04/20 03:10:47;;;;;;;14.07;1.40;;;6.00;99.90;;;;;;5461608;26;20256;-85
2024/04/20 03:13:13;;;;;;;19.08;1.80;;;6.10;99.90;;;;;;5429309;26;20221;-85
2024/04/20 03:15:43;;;;;;;14.67;2.10;;;6.00;99.90;;;;;;5461142;26;20678;-85
2024/04/20 03:18:10;;;;;;;17.73;1.88;;;6.00;99.90;;;;;;5461092;26;20205;-86
2024/04/20 03:20:36;;;;;;;13.40;1.73;;;6.00;99.90;;;;;;5461631;26;20301;-85
2024/04/20 03:23:02;;;;;;;14.80;2.05;;;6.10;99.90;;;;;;5428922;26;20248;-85
2024/04/20 03:25:28;;;;;;;14.77;2.20;;;6.20;99.90;;;;;;5461645;26;20209;-86
2024/04/20 03:27:53;;;;;;;13.43;2.00;;;6.10;99.90;;;;;;5460669;26;20450;-85
2024/04/20 03:30:19;;;;;;;14.00;1.67;;;6.10;99.90;;;;;;5460035;26;20233;-86
2024/04/20 03:32:45;;;;;;;17.37;2.20;;;6.10;99.90;;;;;;5461096;26;20291;-85
2024/04/20 03:35:10;;;;;;;15.20;1.90;;;6.10;99.90;;;;;;5460736;26;20273;-85
2024/04/20 03:37:36;;;;;;;18.30;1.87;;;6.10;99.90;;;;;;5460865;26;20255;-85
2024/04/20 03:40:02;;;;;;;17.47;1.87;;;6.20;99.90;;;;;;5460966;26;20218;-85
2024/04/20 03:42:29;;;;;;;18.20;2.20;;;6.20;99.90;;;;;;5429260;26;20215;-85
2024/04/20 03:44:54;;;;;;;14.00;1.83;;;6.20;99.90;;;;;;5460583;26;20511;-85
2024/04/20 03:47:20;;;;;;;13.07;1.70;;;6.20;99.90;;;;;;5461185;26;20710;-85
2024/04/20 03:49:46;;;;;;;16.70;2.13;;;6.20;99.90;;;;;;5428673;26;20215;-85
2024/04/20 03:52:12;;;;;;;14.25;2.03;;;6.10;99.90;;;;;;5460538;26;20209;-85
2024/04/20 03:54:37;;;;;;;13.83;1.90;;;6.10;99.90;;;;;;5429490;26;20716;-85
2024/04/20 03:57:04;;;;;;;13.83;1.90;;;6.20;99.90;;;;;;5461323;26;20209;-85
2024/04/20 03:59:30;;;;;;;13.10;1.35;;;6.20;99.90;;;;;;5460998;26;20558;-85
2024/04/20 04:01:56;;;;;;;16.10;1.95;;;6.20;99.90;;;;;;5460598;26;20224;-85
2024/04/20 04:04:22;;;;;;;19.88;1.80;;;6.20;99.90;;;;;;5461246;26;20218;-85
2024/04/20 04:06:47;;;;;;;13.40;2.00;;;6.20;99.90;;;;;;5461262;26;20309;-85
2024/04/20 04:09:13;;;;;;;14.90;1.87;;;6.30;99.90;;;;;;5428788;26;20229;-85
2024/04/20 04:11:39;;;;;;;12.87;1.57;;;6.20;99.90;;;;;;5428276;26;20233;-85
2024/04/20 04:14:04;;;;;;;13.67;2.07;;;6.20;99.90;;;;;;5460216;26;20586;-85
2024/04/20 04:16:30;;;;;;;16.07;1.73;;;6.30;99.90;;;;;;5426933;26;20231;-85
2024/04/20 04:18:56;;;;;;;16.20;2.17;;;6.30;99.90;;;;;;5429114;26;20252;-86
2024/04/20 04:21:22;;;;;;;15.67;2.67;;;6.30;99.90;;;;;;5428910;26;20545;-85
2024/04/20 04:23:47;;;;;;;18.67;2.10;;;6.30;99.90;;;;;;5460598;26;20258;-86
2024/04/20 04:26:13;;;;;;;13.40;2.10;;;6.30;99.90;;;;;;5460176;26;20214;-85
2024/04/20 04:28:39;;;;;;;17.57;2.20;;;6.20;99.90;;;;;;5428794;26;20294;-85
2024/04/20 04:31:04;;;;;;;12.90;1.90;;;6.20;99.90;;;;;;5428852;26;20226;-86
2024/04/20 04:33:30;;;;;;;14.33;1.80;;;6.20;99.90;;;;;;5428902;26;20253;-86
2024/04/20 04:35:57;;;;;;;14.63;2.23;;;6.20;99.90;;;;;;5429214;26;20305;-85
2024/04/20 04:38:23;;;;;;;14.80;1.85;;;6.30;99.90;;;;;;5428691;26;20210;-85
2024/04/20 04:40:48;;;;;;;15.67;1.90;;;6.30;99.90;;;;;;5429254;26;20251;-85
2024/04/20 04:43:14;;;;;;;14.00;2.03;;;6.30;99.90;;;;;;5429085;26;20443;-85
2024/04/20 04:45:40;;;;;;;12.83;1.63;;;6.30;99.90;;;;;;5460498;26;20587;-84
2024/04/20 04:48:06;;;;;;;16.97;2.10;;;6.30;99.90;;;;;;5460952;26;20209;-85
2024/04/20 04:50:32;;;;;;;14.88;2.28;;;6.30;99.90;;;;;;5460300;26;20218;-85
2024/04/20 04:52:59;;;;;;;16.08;2.10;;;6.30;99.90;;;;;;5460040;26;20376;-85
2024/04/20 04:55:25;;;;;;;14.00;2.10;;;6.30;99.90;;;;;;5459636;26;20256;-86
2024/04/20 04:57:51;;;;;;;17.17;2.15;;;6.30;99.90;;;;;;5460304;26;20579;-85
2024/04/20 05:00:16;;;;;;;13.50;1.83;;;6.20;99.90;;;;;;5427723;26;20221;-86
2024/04/20 05:02:42;;;;;;;12.87;1.50;;;6.20;99.90;;;;;;5429732;26;20229;-85
2024/04/20 05:05:08;;;;;;;13.07;2.10;;;6.30;99.90;;;;;;5460374;26;20205;-86
2024/04/20 05:07:34;;;;;;;12.60;1.40;;;6.30;99.90;;;;;;5460448;26;20272;-85
2024/04/20 05:10:01;;;;;;;13.10;1.50;;;6.20;99.90;;;;;;5428366;26;20237;-85
2024/04/20 05:12:27;;;;;;;13.65;1.75;;;6.20;99.90;;;;;;5460852;26;20255;-86
2024/04/20 05:14:53;;;;;;;12.67;1.50;;;6.10;99.90;;;;;;5460321;26;20205;-86
2024/04/20 05:17:19;;;;;;;12.50;1.10;;;6.00;99.90;;;;;;5461329;26;20690;-86
2024/04/20 05:19:45;;;;;;;14.50;1.53;;;6.00;99.90;;;;;;5428586;26;20240;-86
2024/04/20 05:22:10;;;;;;;13.03;1.53;;;6.00;99.90;;;;;;5428287;26;20276;-85
2024/04/20 05:24:36;;;;;;;12.17;1.20;;;6.10;99.90;;;;;;5426728;26;20213;-86
2024/04/20 05:27:02;;;;;;;13.67;1.43;;;6.10;99.90;;;;;;5454400;26;20756;-86
2024/04/20 05:29:27;;;;;;;12.27;1.23;;;6.10;99.90;;;;;;5456631;26;20254;-87
2024/04/20 05:31:53;;;;;;;13.67;1.30;;;6.10;99.90;;;;;;5457170;26;20516;-86
2024/04/20 05:34:19;;;;;;;13.37;1.20;;;6.10;99.90;;;;;;5457250;26;20217;-85
2024/04/20 05:36:44;;;;;;;13.63;1.40;;;6.10;99.90;;;;;;5423878;26;20229;-86
2024/04/20 05:39:16;;;;;;;12.30;1.23;;;6.00;99.90;;;;;;5455330;26;20531;-86
2024/04/20 05:42:26;;;;;;;12.32;1.30;;;6.00;99.90;;;;;;5456240;26;20240;-85
2024/04/20 05:44:56;;;;;;;12.25;1.20;;;5.90;99.90;;;;;;5284510;27;20245;-86
2024/04/20 05:47:22;;;;;;;12.18;1.20;;;6.00;99.90;;;;;;5406241;26;20201;-87
2024/04/20 05:49:47;;;;;;;13.20;1.70;;;6.00;99.90;;;;;;5459085;26;20248;-87
2024/04/20 05:52:13;;;;;;;13.03;1.07;;;6.00;99.90;;;;;;5458443;26;20839;-87
2024/04/20 05:54:39;;;;;;;11.87;1.03;;;6.00;99.90;;;;;;5458376;26;20205;-87
2024/04/20 05:57:05;;;;;;;14.30;1.60;;;6.10;99.90;;;;;;5458210;26;20535;-87
2024/04/20 05:59:30;;;;;;;16.20;1.35;;;6.10;99.90;;;;;;5458255;26;20205;-86
2024/04/20 06:01:56;;;;;;;14.27;1.63;;;6.10;99.90;;;;;;5458311;26;20225;-86
2024/04/20 06:04:22;;;;;;;12.77;1.60;;;6.10;99.90;;;;;;5458416;26;20213;-86
2024/04/20 06:06:48;;;;;;;12.57;1.30;;;6.20;99.90;;;;;;5458599;26;20203;-85
2024/04/20 06:09:13;;;;;;;13.20;1.33;;;6.20;99.90;;;;;;5458451;26;20201;-86
2024/04/20 06:11:41;;;;;;;12.97;1.33;;;6.20;99.90;;;;;;5458329;26;20537;-86
2024/04/20 06:14:07;;;;;;;13.63;1.35;;;6.30;99.90;;;;;;5458536;26;20260;-86
2024/04/20 06:16:33;;;;;;;12.33;1.40;;;6.30;99.90;;;;;;5426386;26;20221;-86
2024/04/20 06:18:59;;;;;;;13.00;2.00;;;6.40;99.90;;;;;;5458088;26;20899;-86
2024/04/20 06:21:24;;;;;;;12.73;1.73;;;6.40;99.90;;;;;;5458304;26;20244;-85
2024/04/20 06:23:50;;;;;;;15.03;1.83;;;6.50;99.90;;;;;;5458017;26;20210;-85
2024/04/20 06:26:16;;;;;;;13.67;1.50;;;6.50;99.90;;;;;;5426118;26;20215;-86
2024/04/20 06:28:41;;;;;;;14.80;1.53;;;6.60;99.90;;;;;;5457725;26;20170;-86
2024/04/20 06:31:10;;;;;;;18.83;2.40;;;6.60;99.90;;;;;;5458201;26;20221;-86
2024/04/20 06:33:35;;;;;;;13.98;2.03;;;6.60;99.90;;;;;;5458281;26;20683;-86
2024/04/20 06:36:01;;;;;;;19.70;2.20;;;6.60;99.90;;;;;;5458226;26;20257;-86
2024/04/20 06:38:27;;;;;;;14.40;2.13;;;6.70;99.90;;;;;;5457697;26;20206;-87
2024/04/20 06:40:52;;;;;;;13.73;1.87;;;6.60;99.90;;;;;;5459924;26;20217;-86
2024/04/20 06:43:18;;;;;;;16.30;2.83;;;6.60;99.90;;;;;;5427197;26;20219;-85
2024/04/20 06:45:43;;;;;;;13.50;1.90;;;6.60;99.90;;;;;;5459618;26;20255;-86
2024/04/20 06:48:13;;;;;;;13.63;1.77;;;6.50;99.90;;;;;;5459717;26;20209;-86
2024/04/20 06:50:39;;;;;;;15.30;1.85;;;6.60;99.90;;;;;;5428235;26;20225;-87
2024/04/20 06:53:04;;;;;;;15.63;1.73;;;6.60;99.90;;;;;;5461209;26;20556;-87
2024/04/20 06:55:30;;;;;;;17.30;1.80;;;6.60;99.90;;;;;;5460640;26;20271;-86
2024/04/20 06:57:56;;;;;;;14.30;1.90;;;6.70;99.90;;;;;;5460916;26;20210;-85
2024/04/20 07:00:21;;;;;;;13.40;2.00;;;6.80;99.90;;;;;;5461584;26;20225;-85
2024/04/20 07:02:50;;;;;;;16.33;1.70;;;6.80;99.90;;;;;;5461224;26;20322;-85
2024/04/20 07:05:16;;;;;;;12.23;1.30;;;6.80;99.90;;;;;;5430462;26;20257;-86
2024/04/20 07:07:41;;;;;;;13.00;1.60;;;6.80;99.90;;;;;;5461936;26;20511;-86
2024/04/20 07:10:07;;;;;;;14.40;1.53;;;6.80;99.90;;;;;;5431735;26;20322;-86
2024/04/20 07:12:32;;;;;;;20.40;1.90;;;6.80;99.90;;;;;;5462398;26;20206;-85
2024/04/20 07:15:01;;;;;;;13.67;1.47;;;6.80;99.90;;;;;;5463053;26;20211;-85
2024/04/20 07:17:27;;;;;;;14.75;3.03;;;6.90;99.90;;;;;;5430730;26;20219;-85
2024/04/20 07:19:55;;;;;;;13.27;1.60;;;6.80;99.90;;;;;;5461620;26;20287;-85
2024/04/20 07:22:21;;;;;;;14.35;1.83;;;6.80;99.90;;;;;;5429952;26;20619;-85
2024/04/20 07:24:46;;;;;;;15.80;1.70;;;6.80;99.90;;;;;;5430144;26;20226;-85
2024/04/20 07:27:14;;;;;;;12.50;1.20;;;6.70;99.90;;;;;;5429277;26;20451;-85
2024/04/20 07:29:40;;;;;;;16.63;2.15;;;6.70;99.90;;;;;;5462565;26;20630;-86
2024/04/20 07:32:10;;;;;;;16.97;1.43;;;6.70;99.90;;;;;;5429997;26;20209;-86
2024/04/20 07:34:36;;;;;;;14.32;1.95;;;6.80;99.90;;;;;;5461674;26;20173;-86
2024/04/20 07:37:03;;;;;;;12.80;1.33;;;6.90;99.90;;;;;;5461606;26;20260;-85
2024/04/20 07:39:28;;;;;;;14.60;1.35;;;7.00;99.90;;;;;;5461493;26;20270;-86
2024/04/20 07:41:54;;;;;;;12.27;1.20;;;7.00;99.90;;;;;;5429515;26;20309;-85
2024/04/20 07:44:20;;;;;;;14.40;1.40;;;7.00;99.90;;;;;;5429796;26;20219;-85
2024/04/20 07:47:05;;;;;;;13.47;1.17;;;7.00;99.90;;;;;;5462097;26;20803;-86
2024/04/20 07:49:31;;;;;;;13.27;1.48;;;7.00;99.90;;;;;;5460677;26;20389;-85
2024/04/20 07:51:56;;;;;;;14.67;1.37;;;7.00;99.90;;;;;;5428386;26;20227;-86
2024/04/20 07:54:22;;;;;;;13.07;1.30;;;7.00;99.90;;;;;;5429175;26;20237;-87
2024/04/20 07:56:47;;;;;;;16.37;1.30;;;7.00;99.90;;;;;;5428485;26;20229;-86
2024/04/20 07:59:13;;;;;;;14.37;1.47;;;7.00;99.90;;;;;;5428742;26;20209;-85
2024/04/20 08:01:39;;;;;;;13.40;1.57;;;7.00;99.90;;;;;;5460254;26;20247;-86
2024/04/20 08:04:04;;;;;;;16.20;2.40;;;7.00;99.90;;;;;;5460507;26;20249;-87
2024/04/20 08:06:30;;;;;;;13.50;1.20;;;7.00;99.90;;;;;;5460785;26;20205;-86
2024/04/20 08:08:56;;;;;;;13.70;1.20;;;7.00;99.90;;;;;;5460561;26;20256;-86
2024/04/20 08:11:21;;;;;;;19.40;1.23;;;7.10;99.90;;;;;;5460015;26;20448;-87
2024/04/20 08:13:47;;;;;;;12.53;1.03;;;7.10;99.90;;;;;;5428729;26;20218;-86
2024/04/20 08:16:12;;;;;;;15.93;1.20;;;7.00;99.90;;;;;;5428336;26;20583;-85
2024/04/20 08:18:38;;;;;;;13.70;1.07;;;7.10;99.90;;;;;;5460373;26;20205;-86
2024/04/20 08:21:04;;;;;;;19.63;1.60;;;7.10;99.90;;;;;;5459900;26;20695;-87
2024/04/20 08:23:30;;;;;;;15.13;1.57;;;7.20;99.90;;;;;;5428684;26;20779;-87
2024/04/20 08:25:55;;;;;;;14.40;1.30;;;7.10;99.90;;;;;;5458961;26;20488;-86
2024/04/20 08:28:21;;;;;;;12.40;1.10;;;7.10;99.90;;;;;;5460122;26;20226;-87
2024/04/20 08:30:47;;;;;;;14.03;1.40;;;7.10;99.90;;;;;;5460920;26;20244;-85
2024/04/20 08:33:12;;;;;;;13.17;1.37;;;7.10;99.90;;;;;;5429242;26;20211;-85
2024/04/20 08:35:39;;;;;;;13.50;1.80;;;7.10;99.90;;;;;;5460444;26;20217;-85
2024/04/20 08:38:05;;;;;;;15.07;1.50;;;7.10;99.90;;;;;;5461035;26;20212;-86
2024/04/20 08:40:36;;;;;;;17.13;1.50;;;7.20;99.90;;;;;;5460729;26;20601;-86
2024/04/20 08:43:03;;;;;;;15.27;1.10;;;7.30;99.90;;;;;;5460654;26;20203;-86
2024/04/20 08:45:37;;;;;;;16.23;1.30;;;7.30;99.90;;;;;;5460709;26;20253;-85
2024/04/20 08:48:03;;;;;;;22.05;2.10;;;7.20;99.90;;;;;;5461039;26;20172;-85
2024/04/20 08:50:31;;;;;;;17.50;1.50;;;7.30;99.90;;;;;;5460835;26;20253;-86
2024/04/20 08:53:00;;;;;;;12.85;1.17;;;7.30;99.90;;;;;;5461296;26;20220;-86
2024/04/20 08:55:26;;;;;;;14.60;2.08;;;7.10;99.90;;;;;;5460792;26;20244;-85
2024/04/20 08:57:52;;;;;;;14.48;1.20;;;7.10;99.90;;;;;;5460511;26;20324;-85
2024/04/20 09:00:18;;;;;;;13.53;1.23;;;7.20;99.90;;;;;;5460790;26;20230;-85
2024/04/20 09:02:44;;;;;;;18.03;1.70;;;7.40;99.90;;;;;;5459463;26;20431;-86
2024/04/20 09:05:11;;;;;;;12.02;1.15;;;7.60;99.90;;;;;;5460428;26;20261;-85
2024/04/20 09:07:38;;;;;;;14.98;1.42;;;7.60;99.90;;;;;;5429477;26;20213;-85
2024/04/20 09:10:05;;;;;;;12.90;1.20;;;7.80;99.90;;;;;;5460733;26;20222;-86
2024/04/20 09:12:30;;;;;;;13.25;1.73;;;7.90;99.90;;;;;;5428770;26;20280;-86
2024/04/20 09:14:57;;;;;;;13.10;1.30;;;8.00;99.90;;;;;;5460442;26;20220;-86
2024/04/20 09:17:23;;;;;;;13.35;1.17;;;8.10;99.90;;;;;;5428715;26;20588;-85
2024/04/20 09:19:49;;;;;;;12.50;1.15;;;8.20;99.90;;;;;;5427736;26;20240;-85
2024/04/20 09:22:17;;;;;;;15.00;1.23;;;8.40;99.90;;;;;;5460404;26;20252;-85
2024/04/20 09:24:43;;;;;;;14.00;1.17;;;8.60;99.90;;;;;;5459721;26;20724;-85
2024/04/20 09:27:11;;;;;;;14.27;1.93;;;8.80;99.90;;;;;;5460110;26;20269;-85
2024/04/20 09:29:39;;;;;;;12.02;1.00;;;8.80;99.90;;;;;;5460628;26;20213;-85
2024/04/20 09:32:07;;;;;;;15.15;1.10;;;8.70;99.90;;;;;;5460183;26;20214;-85
2024/04/20 09:34:33;;;;;;;16.75;1.45;;;8.60;99.90;;;;;;5460371;26;20240;-86
2024/04/20 09:36:59;;;;;;;15.37;1.47;;;8.50;99.90;;;;;;5428244;26;20221;-85
2024/04/20 09:39:24;;;;;;;12.77;1.10;;;8.40;99.90;;;;;;5460059;26;20293;-85
2024/04/20 09:41:51;;;;;;;17.47;1.70;;;8.20;99.90;;;;;;5427266;26;20263;-85
2024/04/20 09:44:18;;;;;;;15.10;1.35;;;8.20;99.90;;;;;;5458579;26;20710;-85
2024/04/20 09:46:49;;;;;;;13.65;1.27;;;8.20;99.90;;;;;;5458819;26;20698;-85
2024/04/20 09:49:15;;;;;;;14.50;1.67;;;8.10;99.90;;;;;;5458626;26;20527;-85
2024/04/20 09:51:47;;;;;;;14.52;1.50;;;8.10;99.90;;;;;;5458882;26;20248;-86
2024/04/20 09:54:19;;;;;;;17.95;1.60;;;8.30;99.90;;;;;;5426927;26;20213;-85
2024/04/20 09:56:46;;;;;;;12.40;1.30;;;8.30;99.90;;;;;;5458375;26;20174;-85
2024/04/20 09:59:13;;;;;;;13.30;1.20;;;8.40;99.90;;;;;;5427520;26;20240;-85
2024/04/20 10:01:39;;;;;;;19.73;1.58;;;8.50;99.90;;;;;;5458812;26;20578;-85
2024/04/20 10:04:06;;;;;;;19.05;2.00;;;8.50;99.90;;;;;;5460254;26;20209;-85
2024/04/20 10:06:32;;;;;;;12.57;1.15;;;8.50;99.90;;;;;;5428036;26;20239;-85
2024/04/20 10:08:59;;;;;;;14.90;1.35;;;8.60;99.90;;;;;;5427970;26;20566;-86
2024/04/20 10:11:27;;;;;;;13.10;1.20;;;8.60;99.90;;;;;;5428100;26;20222;-85
2024/04/20 10:13:55;;;;;;;14.77;1.70;;;8.50;99.90;;;;;;5458700;26;20217;-85
2024/04/20 10:16:21;;;;;;;16.52;1.95;;;8.50;99.90;;;;;;5427536;26;20209;-85
2024/04/20 10:18:47;;;;;;;13.80;1.80;;;8.60;99.90;;;;;;5427844;26;20281;-85
2024/04/20 10:21:16;;;;;;;13.50;1.38;;;8.70;99.90;;;;;;5459659;26;20255;-85
2024/04/20 10:23:43;;;;;;;15.57;2.10;;;9.10;99.90;;;;;;5459543;26;20254;-86
2024/04/20 10:26:09;;;;;;;18.50;1.80;;;9.40;99.90;;;;;;5427172;26;20236;-85
2024/04/20 10:28:39;;;;;;;14.40;1.63;;;9.70;99.90;;;;;;5459325;26;20298;-85
2024/04/20 10:31:05;;;;;;;13.43;1.20;;;10.10;99.90;;;;;;5459704;26;20214;-85
2024/04/20 10:33:35;;;;;;;15.70;2.10;;;10.10;99.90;;;;;;5459780;26;20754;-85
2024/04/20 10:36:06;;;;;;;14.80;1.35;;;10.00;99.90;;;;;;5460176;26;20196;-86
2024/04/20 10:38:32;;;;;;;16.85;1.48;;;9.80;99.90;;;;;;5460509;26;20214;-85
2024/04/20 10:41:09;;;;;;;17.27;1.20;;;9.60;99.90;;;;;;5427580;26;20268;-85
2024/04/20 10:43:35;;;;;;;15.23;1.20;;;9.50;99.90;;;;;;5459958;26;20205;-86
2024/04/20 10:46:03;;;;;;;13.50;1.30;;;9.60;99.90;;;;;;5459323;26;20240;-86
2024/04/20 10:48:29;;;;;;;17.42;1.30;;;9.90;99.90;;;;;;5427859;26;20220;-86
2024/04/20 10:50:58;;;;;;;14.70;1.40;;;9.70;92.80;;;;;;5458934;26;20633;-85
2024/04/20 10:53:26;;;;;;;13.55;1.20;;;9.70;92.10;;;;;;5459787;26;20206;-86
2024/04/20 10:55:59;;;;;;;13.88;1.75;;;9.70;84.60;;;;;;5427063;26;20550;-86
2024/04/20 10:58:25;;;;;;;14.27;1.17;;;10.00;64.60;;;;;;5458968;26;20209;-86
2024/04/20 11:01:01;;;;;;;13.25;1.10;;;10.10;1.00;;;;;;5427415;26;20229;-86
2024/04/20 11:03:27;;;;;;;14.40;0.95;;;10.30;1.00;;;;;;5427053;26;20221;-85
2024/04/20 11:05:53;;;;;;;12.73;1.38;;;9.80;1.00;;;;;;5427516;26;20240;-86
2024/04/20 11:08:19;;;;;;;12.68;1.00;;;9.60;1.00;;;;;;5460353;26;20600;-86
2024/04/20 11:10:54;;;;;;;12.70;0.90;;;9.50;26.60;;;;;;5458911;26;20298;-86
2024/04/20 11:13:21;;;;;;;14.48;1.50;;;9.20;56.50;;;;;;5458962;26;20201;-86
2024/04/20 11:15:47;;;;;;;13.30;0.82;;;9.00;60.10;;;;;;5458714;26;20636;-85
2024/04/20 11:18:16;;;;;;;12.70;0.80;;;9.00;72.70;;;;;;5459533;26;20240;-85
2024/04/20 11:20:42;;;;;;;14.85;0.88;;;8.80;74.80;;;;;;5459162;26;20217;-85
2024/04/20 11:23:08;;;;;;;12.50;0.73;;;8.80;94.00;;;;;;5458802;26;20214;-85
2024/04/20 11:25:34;;;;;;;11.97;0.77;;;9.00;93.10;;;;;;5428373;26;20213;-85
2024/04/20 11:28:01;;;;;;;12.30;0.75;;;9.10;82.80;;;;;;5461570;26;20252;-85
2024/04/20 11:30:27;;;;;;;11.98;0.77;;;9.50;92.30;;;;;;5428468;26;20229;-86
2024/04/20 11:32:59;;;;;;;13.30;1.20;;;10.00;73.00;;;;;;5428767;26;20531;-86
2024/04/20 11:35:26;;;;;;;12.63;0.90;;;10.50;47.50;;;;;;5461140;26;20216;-85
2024/04/20 11:38:01;;;;;;;12.18;0.90;;;10.80;1.00;;;;;;5461240;26;20209;-85
2024/04/20 11:40:27;;;;;;;12.10;0.70;;;11.10;1.00;;;;;;5462312;26;20221;-85
2024/04/20 11:42:59;;;;;;;12.70;0.90;;;11.40;1.00;;;;;;5462732;26;20290;-87
2024/04/20 11:45:26;;;;;;;14.05;1.10;;;11.80;1.00;;;;;;5462729;26;20317;-85
2024/04/20 11:47:52;;;;;;;12.50;0.80;;;12.10;1.00;;;;;;5430462;26;20686;-85
2024/04/20 11:50:19;;;;;;;14.25;1.23;;;12.30;1.00;;;;;;5461425;26;20221;-86
2024/04/20 11:55:42;;;;;;;13.10;1.10;;;12.90;1.00;;;;;;5462661;26;20248;-86
2024/04/20 11:58:11;;;;;;;12.43;0.90;;;13.20;1.00;;;;;;5430632;26;20229;-86
2024/04/20 12:00:43;;;;;;;16.27;1.83;;;13.10;1.00;;;;;;5430213;26;20264;-86
2024/04/20 12:03:08;;;;;;;12.88;0.90;;;12.70;1.00;;;;;;5430392;26;20213;-87
2024/04/20 12:05:34;;;;;;;12.80;1.00;;;11.70;1.00;;;;;;5462978;26;20210;-85
2024/04/20 12:08:00;;;;;;;12.67;0.90;;;11.00;1.00;;;;;;5463253;26;20213;-86
2024/04/20 12:10:25;;;;;;;14.80;1.10;;;10.60;1.00;;;;;;5430913;26;20265;-85
2024/04/20 12:12:51;;;;;;;13.40;0.80;;;10.30;1.00;;;;;;5431122;26;20218;-85
2024/04/20 12:15:17;;;;;;;12.80;0.80;;;10.10;1.00;;;;;;5464202;26;20205;-87
2024/04/20 12:17:43;;;;;;;13.03;1.30;;;9.90;1.00;;;;;;5463186;26;20786;-85
2024/04/20 12:20:12;;;;;;;12.90;0.90;;;9.70;1.00;;;;;;5430691;26;20252;-85
2024/04/20 12:22:38;;;;;;;13.20;1.10;;;9.70;1.00;;;;;;5461730;26;20207;-84
2024/04/20 12:25:04;;;;;;;13.00;1.00;;;9.70;1.00;;;;;;5461078;26;20740;-85
2024/04/20 12:27:30;;;;;;;13.25;1.20;;;9.50;1.00;;;;;;5462080;26;20260;-84
2024/04/20 12:29:56;;;;;;;12.97;0.90;;;9.50;1.00;;;;;;5461859;26;20216;-84
2024/04/20 12:32:22;;;;;;;15.20;1.03;;;9.50;4.60;;;;;;5430201;26;20213;-84
2024/04/20 12:34:48;;;;;;;14.63;1.30;;;9.60;12.50;;;;;;5429498;26;20251;-84
2024/04/20 12:37:18;;;;;;;12.75;0.90;;;9.70;8.80;;;;;;5459459;26;20256;-84
2024/04/20 12:39:44;;;;;;;12.60;0.80;;;9.80;8.00;;;;;;5460894;26;20205;-84
2024/04/20 12:42:10;;;;;;;13.20;1.00;;;10.00;3.70;;;;;;5460426;26;20260;-85
2024/04/20 12:44:36;;;;;;;12.50;0.90;;;10.00;1.00;;;;;;5460274;26;20503;-85
2024/04/20 12:47:02;;;;;;;16.37;1.30;;;10.20;1.00;;;;;;5460998;26;20210;-85